sensor_id;sensor_type;location;lat;lon;timestamp;temperature;humidity
25825;DHT22;13658;44.534;18.694;2022-07-29T00:01:04;17.50;99.90
25825;DHT22;13658;44.534;18.694;2022-07-29T00:03:30;17.50;99.90
25825;DHT22;13658;44.534;18.694;2022-07-29T00:05:56;17.40;99.90
25825;DHT22;13658;44.534;18.694;2022-07-29T00:08:22;17.40;99.90
25825;DHT22;13658;44.534;18.694;2022-07-29T00:10:48;17.40;99.90
25825;DHT22;13658;44.534;18.694;2022-07-29T00:13:14;17.40;99.90
25825;DHT22;13658;44.534;18.694;2022-07-29T00:15:40;17.50;99.90
25825;DHT22;13658;44.534;18.694;2022-07-29T00:18:06;17.50;99.90
25825;DHT22;13658;44.534;18.694;2022-07-29T00:20:32;17.50;99.90
25825;DHT22;13658;44.534;18.694;2022-07-29T00:22:58;17.40;99.90
25825;DHT22;13658;44.534;18.694;2022-07-29T00:25:24;17.30;99.90
25825;DHT22;13658;44.534;18.694;2022-07-29T00:27:50;17.30;99.90
25825;DHT22;13658;44.534;18.694;2022-07-29T00:30:16;17.30;99.90
25825;DHT22;13658;44.534;18.694;2022-07-29T00:32:42;17.20;99.90
25825;DHT22;13658;44.534;18.694;2022-07-29T00:35:08;17.20;99.90
25825;DHT22;13658;44.534;18.694;2022-07-29T00:37:53;17.10;99.90
25825;DHT22;13658;44.534;18.694;2022-07-29T00:40:19;16.80;99.90
25825;DHT22;13658;44.534;18.694;2022-07-29T00:42:47;16.80;99.90
25825;DHT22;13658;44.534;18.694;2022-07-29T00:45:13;16.60;99.90
25825;DHT22;13658;44.534;18.694;2022-07-29T00:47:41;16.70;99.90
25825;DHT22;13658;44.534;18.694;2022-07-29T00:50:08;16.60;99.90
25825;DHT22;13658;44.534;18.694;2022-07-29T00:52:39;16.60;99.90
25825;DHT22;13658;44.534;18.694;2022-07-29T00:55:07;16.60;99.90
25825;DHT22;13658;44.534;18.694;2022-07-29T00:57:35;16.70;99.90
25825;DHT22;13658;44.534;18.694;2022-07-29T01:00:03;16.80;99.90
25825;DHT22;13658;44.534;18.694;2022-07-29T01:02:29;16.90;99.90
25825;DHT22;13658;44.534;18.694;2022-07-29T01:04:56;17.00;99.90
25825;DHT22;13658;44.534;18.694;2022-07-29T01:07:24;17.00;99.90
25825;DHT22;13658;44.534;18.694;2022-07-29T01:09:51;17.00;99.90
25825;DHT22;13658;44.534;18.694;2022-07-29T01:12:22;16.90;99.90
25825;DHT22;13658;44.534;18.694;2022-07-29T01:14:50;16.90;99.90
25825;DHT22;13658;44.534;18.694;2022-07-29T01:31:25;16.30;99.90
25825;DHT22;13658;44.534;18.694;2022-07-29T01:33:58;16.30;99.90
25825;DHT22;13658;44.534;18.694;2022-07-29T01:39:05;16.20;99.90
25825;DHT22;13658;44.534;18.694;2022-07-29T01:41:34;16.30;99.90
25825;DHT22;13658;44.534;18.694;2022-07-29T01:44:14;16.30;99.90
25825;DHT22;13658;44.534;18.694;2022-07-29T01:46:50;16.20;99.90
25825;DHT22;13658;44.534;18.694;2022-07-29T01:49:27;16.20;99.90
25825;DHT22;13658;44.534;18.694;2022-07-29T01:51:59;16.20;99.90
25825;DHT22;13658;44.534;18.694;2022-07-29T01:54:40;16.20;99.90
25825;DHT22;13658;44.534;18.694;2022-07-29T01:57:16;16.10;99.90
25825;DHT22;13658;44.534;18.694;2022-07-29T01:59:47;16.10;99.90
25825;DHT22;13658;44.534;18.694;2022-07-29T02:02:16;16.10;99.90
25825;DHT22;13658;44.534;18.694;2022-07-29T02:04:45;16.10;99.90
25825;DHT22;13658;44.534;18.694;2022-07-29T02:07:18;16.00;99.90
25825;DHT22;13658;44.534;18.694;2022-07-29T02:09:46;15.90;99.90
25825;DHT22;13658;44.534;18.694;2022-07-29T02:12:14;16.00;99.90
25825;DHT22;13658;44.534;18.694;2022-07-29T02:14:48;15.90;99.90
25825;DHT22;13658;44.534;18.694;2022-07-29T02:17:21;15.90;99.90
25825;DHT22;13658;44.534;18.694;2022-07-29T02:19:48;15.90;99.90
25825;DHT22;13658;44.534;18.694;2022-07-29T02:22:16;16.00;99.90
25825;DHT22;13658;44.534;18.694;2022-07-29T02:24:42;16.00;99.90
25825;DHT22;13658;44.534;18.694;2022-07-29T02:27:10;16.10;99.90
25825;DHT22;13658;44.534;18.694;2022-07-29T02:29:37;16.10;99.90
25825;DHT22;13658;44.534;18.694;2022-07-29T02:32:05;16.20;99.90
25825;DHT22;13658;44.534;18.694;2022-07-29T02:34:33;16.10;99.90
25825;DHT22;13658;44.534;18.694;2022-07-29T02:37:02;16.10;99.90
25825;DHT22;13658;44.534;18.694;2022-07-29T02:39:28;16.00;99.90
25825;DHT22;13658;44.534;18.694;2022-07-29T02:41:59;15.90;99.90
25825;DHT22;13658;44.534;18.694;2022-07-29T02:44:27;15.90;99.90
25825;DHT22;13658;44.534;18.694;2022-07-29T02:47:02;15.90;99.90
25825;DHT22;13658;44.534;18.694;2022-07-29T02:52:01;15.70;99.90
25825;DHT22;13658;44.534;18.694;2022-07-29T02:54:31;15.80;99.90
25825;DHT22;13658;44.534;18.694;2022-07-29T02:57:06;15.70;99.90
25825;DHT22;13658;44.534;18.694;2022-07-29T02:59:36;15.70;99.90
25825;DHT22;13658;44.534;18.694;2022-07-29T03:02:05;15.70;99.90
25825;DHT22;13658;44.534;18.694;2022-07-29T03:04:32;15.80;99.90
25825;DHT22;13658;44.534;18.694;2022-07-29T03:07:00;15.70;99.90
25825;DHT22;13658;44.534;18.694;2022-07-29T03:09:27;15.80;99.90
25825;DHT22;13658;44.534;18.694;2022-07-29T03:11:55;15.80;99.90
25825;DHT22;13658;44.534;18.694;2022-07-29T03:14:21;15.80;99.90
25825;DHT22;13658;44.534;18.694;2022-07-29T03:16:49;15.90;99.90
25825;DHT22;13658;44.534;18.694;2022-07-29T03:19:16;15.80;99.90
25825;DHT22;13658;44.534;18.694;2022-07-29T03:21:42;15.80;99.90
25825;DHT22;13658;44.534;18.694;2022-07-29T03:24:08;15.70;99.90
25825;DHT22;13658;44.534;18.694;2022-07-29T03:26:34;15.70;99.90
25825;DHT22;13658;44.534;18.694;2022-07-29T03:29:00;15.70;99.90
25825;DHT22;13658;44.534;18.694;2022-07-29T03:31:26;15.60;99.90
25825;DHT22;13658;44.534;18.694;2022-07-29T03:33:52;15.60;99.90
25825;DHT22;13658;44.534;18.694;2022-07-29T03:36:18;15.60;99.90
25825;DHT22;13658;44.534;18.694;2022-07-29T03:38:44;15.70;99.90
25825;DHT22;13658;44.534;18.694;2022-07-29T03:41:13;15.60;99.90
25825;DHT22;13658;44.534;18.694;2022-07-29T03:43:41;15.60;99.90
25825;DHT22;13658;44.534;18.694;2022-07-29T03:46:09;15.60;99.90
25825;DHT22;13658;44.534;18.694;2022-07-29T03:48:38;15.60;99.90
25825;DHT22;13658;44.534;18.694;2022-07-29T03:51:05;15.70;99.90
25825;DHT22;13658;44.534;18.694;2022-07-29T03:53:32;15.80;99.90
25825;DHT22;13658;44.534;18.694;2022-07-29T03:56:02;15.90;99.90
25825;DHT22;13658;44.534;18.694;2022-07-29T03:58:30;15.90;99.90
25825;DHT22;13658;44.534;18.694;2022-07-29T04:00:57;16.00;99.90
25825;DHT22;13658;44.534;18.694;2022-07-29T04:03:24;15.80;99.90
25825;DHT22;13658;44.534;18.694;2022-07-29T04:06:04;15.70;99.90
25825;DHT22;13658;44.534;18.694;2022-07-29T04:08:33;15.50;99.90
25825;DHT22;13658;44.534;18.694;2022-07-29T04:11:01;15.50;99.90
25825;DHT22;13658;44.534;18.694;2022-07-29T04:13:27;15.50;99.90
25825;DHT22;13658;44.534;18.694;2022-07-29T04:15:53;15.50;99.90
25825;DHT22;13658;44.534;18.694;2022-07-29T04:18:19;15.50;99.90
25825;DHT22;13658;44.534;18.694;2022-07-29T04:20:45;15.50;99.90
25825;DHT22;13658;44.534;18.694;2022-07-29T04:23:11;15.70;99.90
25825;DHT22;13658;44.534;18.694;2022-07-29T04:25:38;15.80;99.90
25825;DHT22;13658;44.534;18.694;2022-07-29T04:28:05;15.90;99.90
25825;DHT22;13658;44.534;18.694;2022-07-29T04:30:32;15.80;99.90
25825;DHT22;13658;44.534;18.694;2022-07-29T04:33:00;15.70;99.90
25825;DHT22;13658;44.534;18.694;2022-07-29T04:35:27;15.90;99.90
25825;DHT22;13658;44.534;18.694;2022-07-29T04:37:53;16.10;99.90
25825;DHT22;13658;44.534;18.694;2022-07-29T04:40:20;16.40;99.90
25825;DHT22;13658;44.534;18.694;2022-07-29T04:42:46;16.70;99.90
25825;DHT22;13658;44.534;18.694;2022-07-29T04:45:11;17.00;99.90
25825;DHT22;13658;44.534;18.694;2022-07-29T04:47:37;17.30;99.90
25825;DHT22;13658;44.534;18.694;2022-07-29T04:50:04;17.60;99.90
25825;DHT22;13658;44.534;18.694;2022-07-29T04:52:31;17.80;99.90
25825;DHT22;13658;44.534;18.694;2022-07-29T04:54:57;17.90;99.90
25825;DHT22;13658;44.534;18.694;2022-07-29T04:57:23;18.10;99.90
25825;DHT22;13658;44.534;18.694;2022-07-29T04:59:49;18.30;99.90
25825;DHT22;13658;44.534;18.694;2022-07-29T05:02:15;18.50;99.90
25825;DHT22;13658;44.534;18.694;2022-07-29T05:04:41;18.70;99.90
25825;DHT22;13658;44.534;18.694;2022-07-29T05:07:07;19.00;99.90
25825;DHT22;13658;44.534;18.694;2022-07-29T05:09:33;19.20;99.90
25825;DHT22;13658;44.534;18.694;2022-07-29T05:11:59;19.40;99.90
25825;DHT22;13658;44.534;18.694;2022-07-29T05:14:25;19.60;99.90
25825;DHT22;13658;44.534;18.694;2022-07-29T05:16:51;19.90;99.90
25825;DHT22;13658;44.534;18.694;2022-07-29T05:19:17;20.00;99.90
25825;DHT22;13658;44.534;18.694;2022-07-29T05:21:44;20.20;99.90
25825;DHT22;13658;44.534;18.694;2022-07-29T05:24:10;20.20;99.90
25825;DHT22;13658;44.534;18.694;2022-07-29T05:26:37;20.40;99.90
25825;DHT22;13658;44.534;18.694;2022-07-29T05:29:02;20.60;99.90
25825;DHT22;13658;44.534;18.694;2022-07-29T05:31:28;20.80;99.90
25825;DHT22;13658;44.534;18.694;2022-07-29T05:33:54;20.80;99.90
25825;DHT22;13658;44.534;18.694;2022-07-29T05:36:20;21.00;99.90
25825;DHT22;13658;44.534;18.694;2022-07-29T05:38:46;21.20;99.90
25825;DHT22;13658;44.534;18.694;2022-07-29T05:41:12;21.30;99.90
25825;DHT22;13658;44.534;18.694;2022-07-29T05:43:38;21.30;99.90
25825;DHT22;13658;44.534;18.694;2022-07-29T05:46:04;21.50;99.90
25825;DHT22;13658;44.534;18.694;2022-07-29T05:48:30;21.60;99.90
25825;DHT22;13658;44.534;18.694;2022-07-29T05:50:56;21.60;99.90
25825;DHT22;13658;44.534;18.694;2022-07-29T05:53:22;21.60;99.90
25825;DHT22;13658;44.534;18.694;2022-07-29T05:55:49;21.90;99.90
25825;DHT22;13658;44.534;18.694;2022-07-29T05:58:15;22.20;99.90
25825;DHT22;13658;44.534;18.694;2022-07-29T06:00:41;22.50;99.90
25825;DHT22;13658;44.534;18.694;2022-07-29T06:03:07;22.70;99.90
25825;DHT22;13658;44.534;18.694;2022-07-29T06:05:34;22.90;99.90
25825;DHT22;13658;44.534;18.694;2022-07-29T06:07:59;23.10;99.90
25825;DHT22;13658;44.534;18.694;2022-07-29T06:10:25;22.90;99.90
25825;DHT22;13658;44.534;18.694;2022-07-29T06:12:52;23.30;99.90
25825;DHT22;13658;44.534;18.694;2022-07-29T06:15:18;23.60;99.90
25825;DHT22;13658;44.534;18.694;2022-07-29T06:17:44;23.60;99.90
25825;DHT22;13658;44.534;18.694;2022-07-29T06:20:10;23.80;99.90
25825;DHT22;13658;44.534;18.694;2022-07-29T06:22:36;23.90;99.90
25825;DHT22;13658;44.534;18.694;2022-07-29T06:25:03;23.70;99.90
25825;DHT22;13658;44.534;18.694;2022-07-29T06:27:29;24.20;99.90
25825;DHT22;13658;44.534;18.694;2022-07-29T06:29:56;24.50;99.90
25825;DHT22;13658;44.534;18.694;2022-07-29T06:32:22;24.80;99.90
25825;DHT22;13658;44.534;18.694;2022-07-29T06:34:48;25.30;99.90
25825;DHT22;13658;44.534;18.694;2022-07-29T06:37:14;25.10;99.90
25825;DHT22;13658;44.534;18.694;2022-07-29T06:39:40;25.60;99.90
25825;DHT22;13658;44.534;18.694;2022-07-29T06:42:06;26.00;99.90
25825;DHT22;13658;44.534;18.694;2022-07-29T06:44:33;25.50;99.90
25825;DHT22;13658;44.534;18.694;2022-07-29T06:47:00;25.90;99.90
25825;DHT22;13658;44.534;18.694;2022-07-29T06:49:26;26.20;99.90
25825;DHT22;13658;44.534;18.694;2022-07-29T06:51:53;26.20;99.90
25825;DHT22;13658;44.534;18.694;2022-07-29T06:54:19;26.80;99.90
25825;DHT22;13658;44.534;18.694;2022-07-29T06:56:45;27.20;99.90
25825;DHT22;13658;44.534;18.694;2022-07-29T06:59:12;27.10;99.90
25825;DHT22;13658;44.534;18.694;2022-07-29T07:01:42;27.00;99.90
25825;DHT22;13658;44.534;18.694;2022-07-29T07:04:09;27.50;99.90
25825;DHT22;13658;44.534;18.694;2022-07-29T07:06:35;27.70;99.90
25825;DHT22;13658;44.534;18.694;2022-07-29T07:09:01;27.90;99.90
25825;DHT22;13658;44.534;18.694;2022-07-29T07:11:27;28.30;99.90
25825;DHT22;13658;44.534;18.694;2022-07-29T07:13:54;28.00;99.90
25825;DHT22;13658;44.534;18.694;2022-07-29T07:16:19;27.80;99.90
25825;DHT22;13658;44.534;18.694;2022-07-29T07:18:45;28.20;99.90
25825;DHT22;13658;44.534;18.694;2022-07-29T07:21:12;28.30;99.90
25825;DHT22;13658;44.534;18.694;2022-07-29T07:23:38;27.90;99.90
25825;DHT22;13658;44.534;18.694;2022-07-29T07:26:04;28.50;99.90
25825;DHT22;13658;44.534;18.694;2022-07-29T07:28:31;28.80;99.90
25825;DHT22;13658;44.534;18.694;2022-07-29T07:30:57;28.80;99.90
25825;DHT22;13658;44.534;18.694;2022-07-29T07:33:23;28.80;99.90
25825;DHT22;13658;44.534;18.694;2022-07-29T07:35:50;29.30;99.90
25825;DHT22;13658;44.534;18.694;2022-07-29T07:38:16;29.60;99.90
25825;DHT22;13658;44.534;18.694;2022-07-29T07:40:42;29.40;99.90
25825;DHT22;13658;44.534;18.694;2022-07-29T07:43:08;29.60;99.90
25825;DHT22;13658;44.534;18.694;2022-07-29T07:45:34;29.50;99.90
25825;DHT22;13658;44.534;18.694;2022-07-29T07:48:03;29.30;99.90
25825;DHT22;13658;44.534;18.694;2022-07-29T07:50:29;29.70;99.90
25825;DHT22;13658;44.534;18.694;2022-07-29T07:52:55;29.60;99.90
25825;DHT22;13658;44.534;18.694;2022-07-29T07:55:25;29.60;99.90
25825;DHT22;13658;44.534;18.694;2022-07-29T07:57:52;29.70;99.90
25825;DHT22;13658;44.534;18.694;2022-07-29T08:00:18;29.80;99.90
25825;DHT22;13658;44.534;18.694;2022-07-29T08:02:43;29.80;99.90
25825;DHT22;13658;44.534;18.694;2022-07-29T08:05:11;30.00;99.90
25825;DHT22;13658;44.534;18.694;2022-07-29T08:07:39;29.90;99.90
25825;DHT22;13658;44.534;18.694;2022-07-29T08:10:05;29.80;99.90
25825;DHT22;13658;44.534;18.694;2022-07-29T08:12:31;29.70;99.90
25825;DHT22;13658;44.534;18.694;2022-07-29T08:14:57;30.50;99.90
25825;DHT22;13658;44.534;18.694;2022-07-29T08:17:23;30.80;99.90
25825;DHT22;13658;44.534;18.694;2022-07-29T08:19:49;31.20;99.90
25825;DHT22;13658;44.534;18.694;2022-07-29T08:22:15;31.60;99.90
25825;DHT22;13658;44.534;18.694;2022-07-29T08:24:41;31.30;99.90
25825;DHT22;13658;44.534;18.694;2022-07-29T08:27:18;31.50;99.90
25825;DHT22;13658;44.534;18.694;2022-07-29T08:29:45;32.00;99.90
25825;DHT22;13658;44.534;18.694;2022-07-29T08:32:11;32.40;99.90
25825;DHT22;13658;44.534;18.694;2022-07-29T08:34:37;32.40;99.90
25825;DHT22;13658;44.534;18.694;2022-07-29T08:37:03;32.60;99.90
25825;DHT22;13658;44.534;18.694;2022-07-29T08:39:28;32.80;99.90
25825;DHT22;13658;44.534;18.694;2022-07-29T08:41:55;32.80;99.90
25825;DHT22;13658;44.534;18.694;2022-07-29T08:44:21;33.40;99.90
25825;DHT22;13658;44.534;18.694;2022-07-29T08:46:48;33.30;99.90
25825;DHT22;13658;44.534;18.694;2022-07-29T08:49:15;32.80;99.90
25825;DHT22;13658;44.534;18.694;2022-07-29T08:51:41;32.40;99.90
25825;DHT22;13658;44.534;18.694;2022-07-29T08:54:09;32.80;99.90
25825;DHT22;13658;44.534;18.694;2022-07-29T08:56:36;33.10;99.90
25825;DHT22;13658;44.534;18.694;2022-07-29T08:59:05;33.40;99.90
25825;DHT22;13658;44.534;18.694;2022-07-29T09:01:33;33.90;99.90
25825;DHT22;13658;44.534;18.694;2022-07-29T09:04:01;34.00;99.90
25825;DHT22;13658;44.534;18.694;2022-07-29T09:06:31;33.90;99.90
25825;DHT22;13658;44.534;18.694;2022-07-29T09:08:59;33.90;99.90
25825;DHT22;13658;44.534;18.694;2022-07-29T09:11:26;33.70;99.90
25825;DHT22;13658;44.534;18.694;2022-07-29T09:13:52;32.70;99.90
25825;DHT22;13658;44.534;18.694;2022-07-29T09:16:18;33.10;99.90
25825;DHT22;13658;44.534;18.694;2022-07-29T09:18:45;33.00;99.90
25825;DHT22;13658;44.534;18.694;2022-07-29T09:21:14;33.40;99.90
25825;DHT22;13658;44.534;18.694;2022-07-29T09:26:36;33.00;99.90
25825;DHT22;13658;44.534;18.694;2022-07-29T09:29:12;33.00;99.90
25825;DHT22;13658;44.534;18.694;2022-07-29T09:31:42;33.40;99.90
25825;DHT22;13658;44.534;18.694;2022-07-29T09:34:09;34.20;99.90
25825;DHT22;13658;44.534;18.694;2022-07-29T09:36:42;34.20;99.90
25825;DHT22;13658;44.534;18.694;2022-07-29T09:39:09;34.10;99.90
25825;DHT22;13658;44.534;18.694;2022-07-29T09:41:46;34.50;99.90
25825;DHT22;13658;44.534;18.694;2022-07-29T09:44:12;35.00;99.90
25825;DHT22;13658;44.534;18.694;2022-07-29T09:46:38;35.20;99.90
25825;DHT22;13658;44.534;18.694;2022-07-29T09:49:12;35.20;99.90
25825;DHT22;13658;44.534;18.694;2022-07-29T09:51:39;35.00;99.90
25825;DHT22;13658;44.534;18.694;2022-07-29T09:54:36;34.90;99.90
25825;DHT22;13658;44.534;18.694;2022-07-29T09:57:07;34.50;99.90
25825;DHT22;13658;44.534;18.694;2022-07-29T09:59:35;33.80;99.90
25825;DHT22;13658;44.534;18.694;2022-07-29T10:02:01;33.60;99.90
25825;DHT22;13658;44.534;18.694;2022-07-29T10:04:45;33.20;99.90
25825;DHT22;13658;44.534;18.694;2022-07-29T10:07:11;34.10;99.90
25825;DHT22;13658;44.534;18.694;2022-07-29T10:09:37;34.60;99.90
25825;DHT22;13658;44.534;18.694;2022-07-29T10:12:08;35.10;99.90
25825;DHT22;13658;44.534;18.694;2022-07-29T10:14:35;35.40;99.90
25825;DHT22;13658;44.534;18.694;2022-07-29T10:17:02;35.50;99.90
25825;DHT22;13658;44.534;18.694;2022-07-29T10:19:30;35.50;99.90
25825;DHT22;13658;44.534;18.694;2022-07-29T10:22:01;35.80;99.90
25825;DHT22;13658;44.534;18.694;2022-07-29T10:24:29;35.80;99.90
25825;DHT22;13658;44.534;18.694;2022-07-29T10:26:56;35.90;99.90
25825;DHT22;13658;44.534;18.694;2022-07-29T10:29:24;35.90;99.90
25825;DHT22;13658;44.534;18.694;2022-07-29T10:43:26;36.50;99.90
25825;DHT22;13658;44.534;18.694;2022-07-29T10:45:57;36.90;99.90
25825;DHT22;13658;44.534;18.694;2022-07-29T10:48:23;37.10;99.90
25825;DHT22;13658;44.534;18.694;2022-07-29T10:53:51;37.20;99.90
25825;DHT22;13658;44.534;18.694;2022-07-29T10:56:24;37.30;99.90
25825;DHT22;13658;44.534;18.694;2022-07-29T11:01:47;36.80;99.90
25825;DHT22;13658;44.534;18.694;2022-07-29T11:04:13;36.00;99.90
25825;DHT22;13658;44.534;18.694;2022-07-29T11:09:24;34.00;99.90
25825;DHT22;13658;44.534;18.694;2022-07-29T11:11:51;33.50;99.90
25825;DHT22;13658;44.534;18.694;2022-07-29T11:14:54;33.40;99.90
25825;DHT22;13658;44.534;18.694;2022-07-29T11:17:06;33.50;99.90
25825;DHT22;13658;44.534;18.694;2022-07-29T11:19:33;33.30;99.90
25825;DHT22;13658;44.534;18.694;2022-07-29T11:21:59;33.40;99.90
25825;DHT22;13658;44.534;18.694;2022-07-29T11:24:28;33.10;99.90
25825;DHT22;13658;44.534;18.694;2022-07-29T11:27:10;33.20;99.90
25825;DHT22;13658;44.534;18.694;2022-07-29T11:29:48;32.80;99.90
25825;DHT22;13658;44.534;18.694;2022-07-29T11:32:16;32.60;99.90
25825;DHT22;13658;44.534;18.694;2022-07-29T11:34:46;32.80;99.90
25825;DHT22;13658;44.534;18.694;2022-07-29T11:44:59;32.90;99.90
25825;DHT22;13658;44.534;18.694;2022-07-29T11:47:32;33.20;99.90
25825;DHT22;13658;44.534;18.694;2022-07-29T11:50:00;33.20;99.90
25825;DHT22;13658;44.534;18.694;2022-07-29T11:52:34;33.30;99.90
25825;DHT22;13658;44.534;18.694;2022-07-29T11:55:04;33.50;99.90
25825;DHT22;13658;44.534;18.694;2022-07-29T11:57:34;33.30;99.90
25825;DHT22;13658;44.534;18.694;2022-07-29T12:00:00;33.10;99.90
25825;DHT22;13658;44.534;18.694;2022-07-29T12:02:41;33.30;99.90
25825;DHT22;13658;44.534;18.694;2022-07-29T12:05:08;33.40;99.90
25825;DHT22;13658;44.534;18.694;2022-07-29T12:07:35;33.60;99.90
25825;DHT22;13658;44.534;18.694;2022-07-29T12:10:03;33.30;99.90
25825;DHT22;13658;44.534;18.694;2022-07-29T12:12:29;33.30;99.90
25825;DHT22;13658;44.534;18.694;2022-07-29T12:14:55;33.40;99.90
25825;DHT22;13658;44.534;18.694;2022-07-29T12:17:32;33.40;99.90
25825;DHT22;13658;44.534;18.694;2022-07-29T12:20:01;33.30;99.90
25825;DHT22;13658;44.534;18.694;2022-07-29T12:22:33;33.00;99.90
25825;DHT22;13658;44.534;18.694;2022-07-29T12:25:04;33.00;99.90
25825;DHT22;13658;44.534;18.694;2022-07-29T12:27:31;33.00;99.90
25825;DHT22;13658;44.534;18.694;2022-07-29T12:30:04;33.00;99.90
25825;DHT22;13658;44.534;18.694;2022-07-29T12:32:38;32.80;99.90
25825;DHT22;13658;44.534;18.694;2022-07-29T12:35:06;32.80;99.90
25825;DHT22;13658;44.534;18.694;2022-07-29T12:37:34;32.80;99.90
25825;DHT22;13658;44.534;18.694;2022-07-29T12:40:02;32.90;99.90
25825;DHT22;13658;44.534;18.694;2022-07-29T12:42:28;33.00;99.90
25825;DHT22;13658;44.534;18.694;2022-07-29T12:44:54;33.00;99.90
25825;DHT22;13658;44.534;18.694;2022-07-29T12:47:20;32.80;99.90
25825;DHT22;13658;44.534;18.694;2022-07-29T12:49:47;32.80;99.90
25825;DHT22;13658;44.534;18.694;2022-07-29T12:52:26;32.80;99.90
25825;DHT22;13658;44.534;18.694;2022-07-29T12:54:53;32.60;99.90
25825;DHT22;13658;44.534;18.694;2022-07-29T12:57:19;32.40;99.90
25825;DHT22;13658;44.534;18.694;2022-07-29T12:59:59;32.60;99.90
25825;DHT22;13658;44.534;18.694;2022-07-29T13:02:25;32.70;99.90
25825;DHT22;13658;44.534;18.694;2022-07-29T13:04:58;32.90;99.90
25825;DHT22;13658;44.534;18.694;2022-07-29T13:07:29;32.70;99.90
25825;DHT22;13658;44.534;18.694;2022-07-29T13:13:03;32.70;99.90
25825;DHT22;13658;44.534;18.694;2022-07-29T13:15:31;32.70;99.90
25825;DHT22;13658;44.534;18.694;2022-07-29T13:17:57;32.80;99.90
25825;DHT22;13658;44.534;18.694;2022-07-29T13:20:25;32.70;99.90
25825;DHT22;13658;44.534;18.694;2022-07-29T13:22:53;32.50;99.90
25825;DHT22;13658;44.534;18.694;2022-07-29T13:25:30;32.60;99.90
25825;DHT22;13658;44.534;18.694;2022-07-29T13:27:58;32.60;99.90
25825;DHT22;13658;44.534;18.694;2022-07-29T13:30:25;32.60;99.90
25825;DHT22;13658;44.534;18.694;2022-07-29T13:32:51;32.70;99.90
25825;DHT22;13658;44.534;18.694;2022-07-29T13:35:19;32.80;99.90
25825;DHT22;13658;44.534;18.694;2022-07-29T13:37:45;32.70;99.90
25825;DHT22;13658;44.534;18.694;2022-07-29T13:40:12;32.80;99.90
25825;DHT22;13658;44.534;18.694;2022-07-29T13:42:38;32.60;99.90
25825;DHT22;13658;44.534;18.694;2022-07-29T13:45:05;32.60;99.90
25825;DHT22;13658;44.534;18.694;2022-07-29T13:47:32;32.70;99.90
25825;DHT22;13658;44.534;18.694;2022-07-29T13:49:58;32.60;99.90
25825;DHT22;13658;44.534;18.694;2022-07-29T13:52:24;32.60;99.90
25825;DHT22;13658;44.534;18.694;2022-07-29T13:54:50;32.60;99.90
25825;DHT22;13658;44.534;18.694;2022-07-29T13:57:16;32.50;99.90
25825;DHT22;13658;44.534;18.694;2022-07-29T13:59:42;32.40;99.90
25825;DHT22;13658;44.534;18.694;2022-07-29T14:02:10;32.40;99.90
25825;DHT22;13658;44.534;18.694;2022-07-29T14:04:36;32.20;99.90
25825;DHT22;13658;44.534;18.694;2022-07-29T14:07:02;32.20;99.90
25825;DHT22;13658;44.534;18.694;2022-07-29T14:09:28;32.30;99.90
25825;DHT22;13658;44.534;18.694;2022-07-29T14:11:54;32.30;99.90
25825;DHT22;13658;44.534;18.694;2022-07-29T14:14:20;32.20;99.90
25825;DHT22;13658;44.534;18.694;2022-07-29T14:16:46;32.20;99.90
25825;DHT22;13658;44.534;18.694;2022-07-29T14:19:12;32.20;99.90
25825;DHT22;13658;44.534;18.694;2022-07-29T14:21:39;32.20;99.90
25825;DHT22;13658;44.534;18.694;2022-07-29T14:24:06;32.10;99.90
25825;DHT22;13658;44.534;18.694;2022-07-29T14:26:32;32.20;99.90
25825;DHT22;13658;44.534;18.694;2022-07-29T14:28:58;32.40;99.90
25825;DHT22;13658;44.534;18.694;2022-07-29T14:31:24;32.50;99.90
25825;DHT22;13658;44.534;18.694;2022-07-29T14:33:50;32.50;99.90
25825;DHT22;13658;44.534;18.694;2022-07-29T14:36:16;32.60;99.90
25825;DHT22;13658;44.534;18.694;2022-07-29T14:38:42;32.60;99.90
25825;DHT22;13658;44.534;18.694;2022-07-29T14:41:08;32.70;99.90
25825;DHT22;13658;44.534;18.694;2022-07-29T14:43:34;32.60;99.90
25825;DHT22;13658;44.534;18.694;2022-07-29T14:46:01;32.50;99.90
25825;DHT22;13658;44.534;18.694;2022-07-29T14:48:27;32.40;99.90
25825;DHT22;13658;44.534;18.694;2022-07-29T14:50:53;32.40;99.90
25825;DHT22;13658;44.534;18.694;2022-07-29T14:53:22;32.40;99.90
25825;DHT22;13658;44.534;18.694;2022-07-29T14:55:48;32.50;99.90
25825;DHT22;13658;44.534;18.694;2022-07-29T14:58:14;32.50;99.90
25825;DHT22;13658;44.534;18.694;2022-07-29T15:00:40;32.60;99.90
25825;DHT22;13658;44.534;18.694;2022-07-29T15:03:06;32.50;99.90
25825;DHT22;13658;44.534;18.694;2022-07-29T15:05:35;32.40;99.90
25825;DHT22;13658;44.534;18.694;2022-07-29T15:08:01;32.30;99.90
25825;DHT22;13658;44.534;18.694;2022-07-29T15:10:27;32.20;99.90
25825;DHT22;13658;44.534;18.694;2022-07-29T15:12:54;32.30;99.90
25825;DHT22;13658;44.534;18.694;2022-07-29T15:15:20;32.30;99.90
25825;DHT22;13658;44.534;18.694;2022-07-29T15:17:47;32.30;99.90
25825;DHT22;13658;44.534;18.694;2022-07-29T15:20:13;32.50;99.90
25825;DHT22;13658;44.534;18.694;2022-07-29T15:22:39;32.40;99.90
25825;DHT22;13658;44.534;18.694;2022-07-29T15:25:08;32.40;99.90
25825;DHT22;13658;44.534;18.694;2022-07-29T15:27:34;32.50;99.90
25825;DHT22;13658;44.534;18.694;2022-07-29T15:30:00;32.50;99.90
25825;DHT22;13658;44.534;18.694;2022-07-29T15:32:26;32.40;99.90
25825;DHT22;13658;44.534;18.694;2022-07-29T15:34:51;32.40;99.90
25825;DHT22;13658;44.534;18.694;2022-07-29T15:37:17;32.50;99.90
25825;DHT22;13658;44.534;18.694;2022-07-29T15:39:43;32.50;99.90
25825;DHT22;13658;44.534;18.694;2022-07-29T15:42:09;32.50;99.90
25825;DHT22;13658;44.534;18.694;2022-07-29T15:44:35;32.50;99.90
25825;DHT22;13658;44.534;18.694;2022-07-29T15:47:01;32.40;99.90
25825;DHT22;13658;44.534;18.694;2022-07-29T15:49:38;32.40;99.90
25825;DHT22;13658;44.534;18.694;2022-07-29T15:52:09;32.40;99.90
25825;DHT22;13658;44.534;18.694;2022-07-29T15:54:37;32.40;99.90
25825;DHT22;13658;44.534;18.694;2022-07-29T15:57:04;32.40;99.90
25825;DHT22;13658;44.534;18.694;2022-07-29T15:59:30;32.30;99.90
25825;DHT22;13658;44.534;18.694;2022-07-29T16:01:56;32.40;99.90
25825;DHT22;13658;44.534;18.694;2022-07-29T16:04:22;32.30;99.90
25825;DHT22;13658;44.534;18.694;2022-07-29T16:06:49;32.30;99.90
25825;DHT22;13658;44.534;18.694;2022-07-29T16:09:16;32.30;99.90
25825;DHT22;13658;44.534;18.694;2022-07-29T16:11:42;32.10;99.90